createdAt,value
2022-08-02T00:01:21.851Z,99.90
2022-08-02T00:04:08.453Z,99.90
2022-08-02T00:06:54.297Z,99.90
2022-08-02T00:09:40.517Z,99.90
2022-08-02T00:12:27.289Z,99.90
2022-08-02T00:15:16.362Z,99.90
2022-08-02T00:18:02.802Z,99.90
2022-08-02T00:20:49.383Z,99.90
2022-08-02T00:24:03.192Z,99.90
2022-08-02T00:26:41.682Z,99.90
2022-08-02T00:29:27.913Z,99.90
2022-08-02T00:32:14.028Z,99.90
2022-08-02T00:35:00.385Z,99.90
2022-08-02T00:37:46.392Z,99.90
2022-08-02T00:40:32.572Z,99.90
2022-08-02T00:43:19.289Z,99.90
2022-08-02T00:46:05.342Z,99.90
2022-08-02T00:48:51.547Z,99.90
2022-08-02T00:51:37.642Z,99.90
2022-08-02T00:54:23.967Z,99.90
2022-08-02T00:57:10.018Z,99.90
2022-08-02T00:59:56.252Z,99.90
2022-08-02T01:02:42.694Z,99.90
2022-08-02T01:05:28.941Z,99.90
2022-08-02T01:08:15.195Z,99.90
2022-08-02T01:11:01.873Z,99.90
2022-08-02T01:13:48.141Z,99.90
2022-08-02T01:16:43.090Z,99.90
2022-08-02T01:19:42.464Z,99.90
2022-08-02T01:23:03.123Z,99.90
2022-08-02T01:26:01.456Z,99.90
2022-08-02T01:28:51.181Z,99.90
2022-08-02T01:31:50.475Z,99.90
2022-08-02T01:34:41.165Z,99.90
2022-08-02T01:37:39.701Z,99.90
2022-08-02T01:40:32.359Z,99.90
2022-08-02T01:43:21.499Z,99.90
2022-08-02T01:46:09.451Z,99.90
2022-08-02T01:48:58.051Z,99.90
2022-08-02T01:52:05.777Z,99.90
2022-08-02T01:55:09.761Z,99.90
2022-08-02T01:58:00.546Z,99.90
2022-08-02T02:00:48.247Z,99.90
2022-08-02T02:03:41.747Z,99.90
2022-08-02T02:06:28.802Z,99.90
2022-08-02T02:09:15.622Z,99.90
2022-08-02T02:12:13.471Z,99.90
2022-08-02T02:15:02.113Z,99.90
2022-08-02T02:18:12.614Z,99.90
2022-08-02T02:20:58.657Z,99.90
2022-08-02T02:23:45.073Z,99.90
2022-08-02T02:26:32.060Z,99.90
2022-08-02T02:29:21.858Z,99.90
2022-08-02T02:32:08.896Z,99.90
2022-08-02T02:34:56.745Z,99.90
2022-08-02T02:37:44.748Z,99.90
2022-08-02T02:40:32.826Z,99.90
2022-08-02T02:43:20.447Z,99.90
2022-08-02T02:46:08.365Z,99.90
2022-08-02T02:48:55.200Z,99.90
2022-08-02T02:51:42.211Z,99.90
2022-08-02T02:54:34.194Z,99.90
2022-08-02T02:57:22.405Z,99.90
2022-08-02T03:00:14.245Z,99.90
2022-08-02T03:03:00.499Z,99.90
2022-08-02T03:05:46.429Z,99.90
2022-08-02T03:08:32.549Z,99.90
2022-08-02T03:11:20.097Z,99.90
2022-08-02T03:14:10.010Z,99.90
2022-08-02T03:16:56.268Z,99.90
2022-08-02T03:19:42.356Z,99.90
2022-08-02T03:22:28.213Z,99.90
2022-08-02T03:25:15.467Z,99.90
2022-08-02T03:28:01.681Z,99.90
2022-08-02T03:30:47.521Z,99.90
2022-08-02T03:33:34.337Z,99.90
2022-08-02T03:36:23.726Z,99.90
2022-08-02T03:39:12.706Z,99.90
2022-08-02T03:41:59.290Z,99.90
2022-08-02T03:44:45.787Z,99.90
2022-08-02T03:47:33.372Z,99.90
2022-08-02T03:50:22.929Z,99.90
2022-08-02T03:53:09.850Z,99.90
2022-08-02T03:56:06.925Z,99.90
2022-08-02T03:59:15.100Z,99.90
2022-08-02T04:02:03.450Z,99.90
2022-08-02T04:04:50.038Z,99.90
2022-08-02T04:08:34.930Z,99.90
2022-08-02T04:11:01.382Z,99.90
2022-08-02T04:13:47.705Z,99.90
2022-08-02T04:16:50.243Z,99.90
2022-08-02T04:19:47.089Z,99.90
2022-08-02T04:22:43.014Z,99.90
2022-08-02T04:25:35.402Z,99.90
2022-08-02T04:28:27.611Z,99.90
2022-08-02T04:31:17.359Z,99.90
2022-08-02T04:34:04.093Z,99.90
2022-08-02T04:36:50.316Z,99.90
2022-08-02T04:39:36.534Z,99.90
2022-08-02T04:42:26.766Z,99.90
2022-08-02T04:45:16.514Z,99.90
2022-08-02T04:48:05.370Z,99.90
2022-08-02T04:50:52.335Z,99.90
2022-08-02T04:53:38.530Z,99.90
2022-08-02T04:56:24.494Z,99.90
2022-08-02T04:59:12.373Z,99.90
2022-08-02T05:01:58.522Z,99.90
2022-08-02T05:04:44.331Z,99.90
2022-08-02T05:07:30.343Z,99.90
2022-08-02T05:10:22.759Z,99.90
2022-08-02T05:13:08.738Z,99.90
2022-08-02T05:15:54.575Z,99.90
2022-08-02T05:18:40.608Z,99.90
2022-08-02T05:21:26.530Z,99.90
2022-08-02T05:24:12.536Z,99.90
2022-08-02T05:26:59.154Z,99.90
2022-08-02T05:29:53.917Z,99.90
2022-08-02T05:32:49.046Z,99.90
2022-08-02T05:35:35.213Z,99.90
2022-08-02T05:38:23.502Z,99.90
2022-08-02T05:41:12.002Z,99.90
2022-08-02T05:43:58.124Z,99.90
2022-08-02T05:46:44.090Z,99.90
2022-08-02T05:49:30.196Z,99.90
2022-08-02T05:52:19.425Z,99.90
2022-08-02T05:55:30.413Z,99.90
2022-08-02T05:59:00.191Z,99.90
2022-08-02T06:01:49.138Z,99.90
2022-08-02T06:05:04.762Z,99.90
2022-08-02T06:07:51.361Z,99.90
2022-08-02T06:10:39.752Z,99.90
2022-08-02T06:13:26.066Z,99.90
2022-08-02T06:16:14.306Z,99.90
2022-08-02T06:19:02.477Z,99.90
2022-08-02T06:22:32.906Z,99.90
2022-08-02T06:24:56.762Z,99.90
2022-08-02T06:27:43.505Z,99.90
2022-08-02T06:30:30.057Z,99.90
2022-08-02T06:33:16.767Z,99.90
2022-08-02T06:36:27.768Z,99.90
2022-08-02T06:39:48.145Z,99.90
2022-08-02T06:42:52.551Z,99.90
2022-08-02T06:45:39.098Z,99.90
2022-08-02T06:48:25.204Z,99.90
2022-08-02T06:51:12.229Z,99.90
2022-08-02T06:53:58.469Z,99.90
2022-08-02T06:56:44.506Z,99.90
2022-08-02T06:59:30.424Z,99.90
2022-08-02T07:02:16.517Z,99.90
2022-08-02T07:05:03.490Z,99.90
2022-08-02T07:07:49.612Z,99.90
2022-08-02T07:10:35.558Z,99.90
2022-08-02T07:13:21.669Z,99.90
2022-08-02T07:16:07.934Z,99.90
2022-08-02T07:18:54.093Z,99.90
2022-08-02T07:21:56.513Z,99.90
2022-08-02T07:24:45.667Z,99.90
2022-08-02T07:27:34.928Z,99.90
2022-08-02T07:30:23.361Z,99.90
2022-08-02T07:33:38.687Z,99.90
2022-08-02T07:36:26.701Z,99.90
2022-08-02T07:39:13.130Z,99.90
2022-08-02T07:41:59.704Z,99.80
2022-08-02T07:44:49.132Z,99.90
2022-08-02T07:47:40.305Z,99.60
2022-08-02T07:50:28.266Z,99.50
2022-08-02T07:53:14.810Z,99.40
2022-08-02T07:56:01.203Z,98.60
2022-08-02T07:58:47.162Z,98.70
2022-08-02T08:01:33.241Z,98.40
2022-08-02T08:04:20.078Z,98.20
2022-08-02T08:07:07.662Z,97.50
2022-08-02T08:09:56.264Z,97.90
2022-08-02T08:12:43.104Z,98.20
2022-08-02T08:15:29.038Z,97.70
2022-08-02T08:18:14.952Z,96.90
2022-08-02T08:21:00.949Z,97.20
2022-08-02T08:23:50.737Z,96.50
2022-08-02T08:26:36.594Z,96.80
2022-08-02T08:29:24.055Z,95.80
2022-08-02T08:32:15.720Z,96.00
2022-08-02T08:35:04.008Z,95.70
2022-08-02T08:37:50.137Z,95.40
2022-08-02T08:40:37.191Z,95.90
2022-08-02T08:43:24.590Z,95.90
2022-08-02T08:46:12.095Z,95.60
2022-08-02T08:49:06.670Z,95.60
2022-08-02T08:51:56.198Z,95.10
2022-08-02T08:54:44.199Z,93.90
2022-08-02T08:57:37.029Z,92.70
2022-08-02T09:00:23.320Z,93.20
2022-08-02T09:03:10.010Z,93.10
2022-08-02T09:05:58.307Z,91.80
2022-08-02T09:08:44.658Z,92.20
2022-08-02T09:11:31.029Z,92.90
2022-08-02T09:14:29.169Z,93.00
2022-08-02T09:17:15.511Z,93.00
2022-08-02T09:20:09.065Z,91.70
2022-08-02T09:23:08.818Z,92.00
2022-08-02T09:26:04.516Z,91.60
2022-08-02T09:29:00.890Z,91.70
2022-08-02T09:31:50.043Z,91.90
2022-08-02T09:34:55.263Z,91.60
2022-08-02T09:37:42.065Z,91.30
2022-08-02T09:40:37.378Z,90.60
2022-08-02T09:44:03.871Z,90.10
2022-08-02T09:46:48.023Z,89.90
2022-08-02T09:49:33.991Z,89.50
2022-08-02T09:52:43.072Z,86.80
2022-08-02T09:55:30.144Z,88.40
2022-08-02T09:58:20.514Z,87.90
2022-08-02T10:01:06.818Z,89.00
2022-08-02T10:03:58.588Z,87.90
2022-08-02T10:06:44.928Z,86.30
2022-08-02T10:09:31.215Z,86.70
2022-08-02T10:12:17.731Z,86.20
2022-08-02T10:15:04.653Z,87.90
2022-08-02T10:17:50.680Z,86.30
2022-08-02T10:20:44.086Z,85.70
2022-08-02T10:23:36.420Z,84.30
2022-08-02T10:26:22.965Z,84.50
2022-08-02T10:29:10.145Z,82.10
2022-08-02T10:32:01.562Z,82.10
2022-08-02T10:34:58.700Z,81.40
2022-08-02T10:38:09.061Z,79.20
2022-08-02T10:40:56.205Z,79.70
2022-08-02T10:43:44.948Z,78.10
2022-08-02T10:46:34.197Z,78.70
2022-08-02T10:49:39.829Z,78.20
2022-08-02T10:52:28.401Z,77.70
2022-08-02T10:55:22.168Z,78.10
2022-08-02T10:58:21.595Z,80.10
2022-08-02T11:01:38.717Z,78.60
2022-08-02T11:04:26.894Z,78.70
2022-08-02T11:07:22.056Z,78.40
2022-08-02T11:10:26.386Z,77.80
2022-08-02T11:13:17.906Z,78.60
2022-08-02T11:16:11.143Z,77.00
2022-08-02T11:18:57.427Z,76.50
2022-08-02T11:22:02.914Z,76.10
2022-08-02T11:24:49.025Z,74.80
2022-08-02T11:27:35.754Z,75.40
2022-08-02T11:30:26.736Z,75.30
2022-08-02T11:33:14.164Z,76.00
2022-08-02T11:36:07.346Z,75.60
2022-08-02T11:39:13.713Z,76.30
2022-08-02T11:42:02.419Z,75.30
2022-08-02T11:44:49.268Z,74.10
2022-08-02T11:47:55.410Z,74.90
2022-08-02T11:50:41.805Z,74.00
2022-08-02T11:53:27.734Z,75.30
2022-08-02T11:56:24.112Z,74.40
2022-08-02T11:59:14.406Z,73.90
2022-08-02T12:02:00.733Z,73.00
2022-08-02T12:05:00.734Z,73.70
2022-08-02T12:07:48.641Z,74.30
2022-08-02T12:10:34.667Z,74.00
2022-08-02T12:13:20.707Z,72.10
2022-08-02T12:16:30.635Z,71.60
2022-08-02T12:19:19.496Z,71.20
2022-08-02T12:22:13.388Z,71.40
2022-08-02T12:24:59.961Z,71.00
2022-08-02T12:27:46.527Z,70.20
2022-08-02T12:30:58.050Z,71.00
2022-08-02T12:33:52.949Z,70.50
2022-08-02T12:36:39.957Z,69.70
2022-08-02T12:39:36.926Z,68.00
2022-08-02T12:42:23.098Z,66.10
2022-08-02T12:45:09.390Z,66.30
2022-08-02T12:47:57.821Z,66.60
2022-08-02T12:50:44.677Z,65.50
2022-08-02T12:53:34.313Z,66.90
2022-08-02T12:56:31.605Z,65.90
2022-08-02T12:59:39.049Z,65.00
2022-08-02T13:02:25.603Z,65.80
2022-08-02T13:05:11.656Z,63.10
2022-08-02T13:07:59.302Z,62.00
2022-08-02T13:10:45.636Z,61.10
2022-08-02T13:13:31.517Z,60.60
2022-08-02T13:16:17.789Z,59.70
2022-08-02T13:19:17.290Z,60.40
2022-08-02T13:22:03.881Z,61.40
2022-08-02T13:24:55.649Z,61.00
2022-08-02T13:27:42.480Z,61.20
2022-08-02T13:30:28.490Z,59.90
2022-08-02T13:33:15.485Z,60.10
2022-08-02T13:36:01.721Z,60.80
2022-08-02T13:38:47.635Z,61.00
2022-08-02T13:41:33.813Z,60.50
2022-08-02T13:44:19.779Z,61.00
2022-08-02T13:47:06.325Z,60.00
2022-08-02T13:49:53.360Z,61.00
2022-08-02T13:52:39.462Z,60.20
2022-08-02T13:55:25.493Z,60.30
2022-08-02T13:58:11.618Z,59.80
2022-08-02T14:00:57.510Z,60.60
2022-08-02T14:04:05.741Z,60.20
2022-08-02T14:06:50.195Z,59.80
2022-08-02T14:09:36.583Z,60.00
2022-08-02T14:12:22.802Z,59.40
2022-08-02T14:15:09.493Z,58.60
2022-08-02T14:17:55.714Z,59.40
2022-08-02T14:20:43.586Z,59.30
2022-08-02T14:23:49.309Z,57.60
2022-08-02T14:26:37.840Z,58.20
2022-08-02T14:29:24.162Z,57.40
2022-08-02T14:32:10.750Z,56.90
2022-08-02T14:34:56.923Z,57.10
2022-08-02T14:37:42.973Z,57.20
2022-08-02T14:40:31.306Z,58.00
2022-08-02T14:43:36.421Z,57.30
2022-08-02T14:46:22.381Z,57.40
2022-08-02T14:49:10.162Z,57.00
2022-08-02T14:51:56.556Z,56.60
2022-08-02T14:54:43.192Z,57.20
2022-08-02T14:57:28.915Z,57.30
2022-08-02T15:00:17.785Z,56.00
2022-08-02T15:03:04.029Z,56.80
2022-08-02T15:05:55.640Z,56.40
2022-08-02T15:08:41.581Z,56.00
2022-08-02T15:11:27.846Z,55.60
2022-08-02T15:14:13.852Z,54.90
2022-08-02T15:16:59.850Z,55.30
2022-08-02T15:19:59.308Z,54.60
2022-08-02T15:22:49.361Z,56.10
2022-08-02T15:25:41.073Z,57.10
2022-08-02T15:28:29.643Z,56.90
2022-08-02T15:31:22.287Z,55.70
2022-08-02T15:34:19.059Z,55.70
2022-08-02T15:37:05.341Z,55.70
2022-08-02T15:39:51.466Z,56.10
2022-08-02T15:42:37.518Z,55.70
2022-08-02T15:45:25.417Z,56.20
2022-08-02T15:48:12.155Z,55.50
2022-08-02T15:50:58.601Z,55.50
2022-08-02T15:53:44.687Z,55.70
2022-08-02T15:56:35.590Z,54.90
2022-08-02T15:59:21.670Z,55.10
2022-08-02T16:02:07.770Z,55.00
2022-08-02T16:04:53.966Z,54.80
2022-08-02T16:07:41.206Z,54.50
2022-08-02T16:10:28.025Z,54.50
2022-08-02T16:13:53.368Z,53.80
2022-08-02T16:16:40.410Z,54.10
2022-08-02T16:19:47.551Z,52.70
2022-08-02T16:22:33.485Z,52.60
2022-08-02T16:25:19.856Z,53.70
2022-08-02T16:28:08.103Z,53.20
2022-08-02T16:31:10.119Z,53.80
2022-08-02T16:33:58.145Z,54.60
2022-08-02T16:36:44.916Z,54.20
2022-08-02T16:39:30.828Z,54.00
2022-08-02T16:42:16.966Z,54.20
2022-08-02T16:45:12.100Z,54.10
2022-08-02T16:48:03.809Z,54.00
2022-08-02T16:50:51.851Z,53.60
2022-08-02T16:54:00.700Z,53.40
2022-08-02T16:56:44.337Z,54.40
2022-08-02T17:02:40.391Z,54.00
2022-08-02T17:05:37.553Z,54.10
2022-08-02T17:08:24.634Z,53.80
2022-08-02T17:11:18.238Z,53.90
2022-08-02T17:14:04.110Z,53.50
2022-08-02T17:16:50.175Z,54.80
2022-08-02T17:19:38.322Z,55.10
2022-08-02T17:22:24.735Z,55.20
2022-08-02T17:25:14.454Z,55.10
2022-08-02T17:28:01.105Z,55.90
2022-08-02T17:30:47.207Z,55.60
2022-08-02T17:33:34.783Z,55.50
2022-08-02T17:36:22.825Z,56.10
2022-08-02T17:39:08.926Z,56.20
2022-08-02T17:41:55.153Z,57.00
2022-08-02T17:44:41.119Z,56.80
2022-08-02T17:47:31.582Z,57.40
2022-08-02T17:50:28.123Z,57.40
2022-08-02T17:53:14.414Z,57.10
2022-08-02T17:56:01.285Z,57.10
2022-08-02T17:58:54.045Z,57.50
2022-08-02T18:01:42.155Z,57.40
2022-08-02T18:04:39.448Z,57.80
2022-08-02T18:07:26.028Z,58.50
2022-08-02T18:10:31.817Z,58.30
2022-08-02T18:13:17.712Z,58.60
2022-08-02T18:16:04.088Z,58.50
2022-08-02T18:18:50.774Z,58.70
2022-08-02T18:21:37.062Z,58.80
2022-08-02T18:24:23.954Z,59.00
2022-08-02T18:27:10.774Z,58.90
2022-08-02T18:30:00.365Z,58.60
2022-08-02T18:33:59.086Z,58.70
2022-08-02T18:35:56.832Z,59.20
2022-08-02T18:38:45.787Z,59.40
2022-08-02T18:41:34.089Z,59.40
2022-08-02T18:44:21.253Z,59.70
2022-08-02T18:47:08.769Z,60.60
2022-08-02T18:49:56.303Z,61.60
2022-08-02T18:52:43.472Z,61.70
2022-08-02T18:55:59.675Z,61.80
2022-08-02T18:58:40.404Z,62.40
2022-08-02T19:01:33.562Z,63.40
2022-08-02T19:04:27.462Z,64.40
2022-08-02T19:07:14.289Z,64.00
2022-08-02T19:10:00.173Z,64.30
2022-08-02T19:12:46.492Z,64.20
2022-08-02T19:15:38.442Z,64.20
2022-08-02T19:18:27.061Z,64.20
2022-08-02T19:21:17.131Z,64.30
2022-08-02T19:24:23.234Z,64.00
2022-08-02T19:27:14.016Z,64.30
2022-08-02T19:33:20.374Z,65.80
2022-08-02T19:36:18.162Z,66.10
2022-08-02T19:39:05.688Z,66.60
2022-08-02T19:41:53.979Z,67.10
2022-08-02T19:44:44.988Z,67.20
2022-08-02T19:47:38.624Z,67.70
2022-08-02T19:50:25.831Z,67.90
2022-08-02T19:53:12.266Z,68.50
2022-08-02T19:56:02.992Z,68.80
2022-08-02T20:01:57.004Z,69.20
2022-08-02T20:04:42.987Z,69.60
2022-08-02T20:07:54.758Z,69.70
2022-08-02T20:10:45.930Z,70.10
2022-08-02T20:13:34.708Z,70.20
2022-08-02T20:16:35.380Z,71.00
2022-08-02T20:19:21.808Z,71.00
2022-08-02T20:22:08.283Z,70.90
2022-08-02T20:24:54.473Z,71.40
2022-08-02T20:27:40.423Z,71.90
2022-08-02T20:30:37.991Z,72.10
2022-08-02T20:33:24.159Z,72.10
2022-08-02T20:36:10.055Z,72.50
2022-08-02T20:38:56.394Z,73.10
2022-08-02T20:41:45.840Z,73.00
2022-08-02T20:44:34.502Z,73.20
2022-08-02T20:47:28.468Z,73.30
2022-08-02T20:50:45.034Z,74.00
2022-08-02T20:53:31.016Z,74.30
2022-08-02T20:56:17.154Z,74.20
2022-08-02T20:59:15.534Z,74.50
2022-08-02T21:02:02.067Z,74.40
2022-08-02T21:04:48.535Z,74.40
2022-08-02T21:07:36.633Z,74.40
2022-08-02T21:10:24.336Z,74.70
2022-08-02T21:13:19.057Z,74.90
2022-08-02T21:16:09.284Z,74.90
2022-08-02T21:19:00.040Z,74.80
2022-08-02T21:21:46.534Z,74.90
2022-08-02T21:24:32.533Z,75.30
2022-08-02T21:30:24.862Z,75.70
2022-08-02T21:33:23.271Z,75.90
2022-08-02T21:36:10.275Z,76.40
2022-08-02T21:38:57.932Z,76.30
2022-08-02T21:41:46.243Z,76.40
2022-08-02T21:44:33.213Z,76.40
2022-08-02T21:47:28.063Z,76.90
2022-08-02T21:50:15.807Z,77.00
2022-08-02T21:53:02.827Z,77.20
2022-08-02T21:55:59.953Z,77.90
2022-08-02T21:58:47.309Z,78.50
2022-08-02T22:01:35.867Z,79.10
2022-08-02T22:04:22.388Z,80.30
2022-08-02T22:07:08.349Z,80.60
2022-08-02T22:09:55.524Z,81.20
2022-08-02T22:12:41.865Z,81.40
2022-08-02T22:15:36.021Z,81.20
2022-08-02T22:18:29.350Z,81.10
2022-08-02T22:21:17.114Z,81.10
2022-08-02T22:24:05.445Z,81.40
2022-08-02T22:26:59.280Z,81.10
2022-08-02T22:29:45.505Z,81.30
2022-08-02T22:32:51.527Z,81.40
2022-08-02T22:35:37.519Z,81.40
2022-08-02T22:38:25.971Z,81.60
2022-08-02T22:41:15.988Z,81.70
2022-08-02T22:44:02.274Z,81.70
2022-08-02T22:46:49.959Z,82.20
2022-08-02T22:49:37.874Z,82.50
2022-08-02T22:52:30.564Z,83.60
2022-08-02T22:55:16.428Z,84.00
2022-08-02T22:58:02.495Z,84.00
2022-08-02T22:58:49.768Z,54.00
2022-08-02T22:58:54.020Z,69.30
2022-08-02T22:58:57.183Z,64.80
2022-08-02T22:59:12.606Z,75.70
2022-08-02T23:00:49.466Z,84.70
2022-08-02T23:03:38.423Z,84.90
2022-08-02T23:06:24.737Z,85.10
2022-08-02T23:09:10.652Z,85.00
2022-08-02T23:11:56.576Z,85.30
2022-08-02T23:14:42.615Z,85.50
2022-08-02T23:17:46.925Z,85.60
2022-08-02T23:20:33.460Z,85.90
2022-08-02T23:23:19.758Z,85.60
2022-08-02T23:26:05.874Z,85.50
2022-08-02T23:28:52.026Z,85.90
2022-08-02T23:31:38.439Z,86.40
2022-08-02T23:34:24.373Z,86.90
2022-08-02T23:37:11.856Z,87.50
2022-08-02T23:39:57.965Z,88.20
2022-08-02T23:42:43.891Z,89.20
2022-08-02T23:45:34.963Z,89.80
2022-08-02T23:48:23.837Z,90.10
2022-08-02T23:51:09.718Z,90.40
2022-08-02T23:54:05.421Z,90.50
2022-08-02T23:56:52.329Z,90.80
2022-08-02T23:59:38.203Z,90.90
